sensor_id;sensor_type;location;lat;lon;timestamp;P1;durP1;ratioP1;P2;durP2;ratioP2
34960;SDS011;30789;52.030;7.110;2023-03-23T00:01:15;7.32;;;4.05;;
34960;SDS011;30789;52.030;7.110;2023-03-23T00:03:44;5.95;;;3.92;;
34960;SDS011;30789;52.030;7.110;2023-03-23T00:06:11;5.65;;;4.03;;
34960;SDS011;30789;52.030;7.110;2023-03-23T00:08:43;6.80;;;4.07;;
34960;SDS011;30789;52.030;7.110;2023-03-23T00:11:11;7.22;;;4.28;;
34960;SDS011;30789;52.030;7.110;2023-03-23T00:13:39;6.82;;;3.85;;
34960;SDS011;30789;52.030;7.110;2023-03-23T00:16:06;9.32;;;3.92;;
34960;SDS011;30789;52.030;7.110;2023-03-23T00:18:43;7.55;;;4.03;;
34960;SDS011;30789;52.030;7.110;2023-03-23T00:21:09;10.45;;;3.80;;
34960;SDS011;30789;52.030;7.110;2023-03-23T00:23:36;5.60;;;4.00;;
34960;SDS011;30789;52.030;7.110;2023-03-23T00:26:04;6.50;;;3.63;;
34960;SDS011;30789;52.030;7.110;2023-03-23T00:28:30;7.53;;;4.45;;
34960;SDS011;30789;52.030;7.110;2023-03-23T00:30:57;6.55;;;4.05;;
34960;SDS011;30789;52.030;7.110;2023-03-23T00:33:24;5.65;;;3.83;;
34960;SDS011;30789;52.030;7.110;2023-03-23T00:35:51;8.20;;;4.07;;
34960;SDS011;30789;52.030;7.110;2023-03-23T00:38:17;6.93;;;3.95;;
34960;SDS011;30789;52.030;7.110;2023-03-23T00:40:44;9.32;;;4.15;;
34960;SDS011;30789;52.030;7.110;2023-03-23T00:43:13;6.65;;;3.88;;
34960;SDS011;30789;52.030;7.110;2023-03-23T00:45:41;6.25;;;4.07;;
34960;SDS011;30789;52.030;7.110;2023-03-23T00:48:07;4.28;;;3.45;;
34960;SDS011;30789;52.030;7.110;2023-03-23T00:50:34;6.93;;;4.00;;
34960;SDS011;30789;52.030;7.110;2023-03-23T00:53:00;8.00;;;3.72;;
34960;SDS011;30789;52.030;7.110;2023-03-23T00:55:27;6.68;;;3.72;;
34960;SDS011;30789;52.030;7.110;2023-03-23T00:57:55;5.80;;;3.30;;
34960;SDS011;30789;52.030;7.110;2023-03-23T01:00:23;6.70;;;3.72;;
34960;SDS011;30789;52.030;7.110;2023-03-23T01:02:49;9.30;;;3.45;;
34960;SDS011;30789;52.030;7.110;2023-03-23T01:05:20;5.10;;;3.55;;
34960;SDS011;30789;52.030;7.110;2023-03-23T01:07:46;4.40;;;3.17;;
34960;SDS011;30789;52.030;7.110;2023-03-23T01:10:13;6.35;;;3.28;;
34960;SDS011;30789;52.030;7.110;2023-03-23T01:12:41;3.88;;;2.85;;
34960;SDS011;30789;52.030;7.110;2023-03-23T01:15:08;7.53;;;3.42;;
34960;SDS011;30789;52.030;7.110;2023-03-23T01:17:36;5.32;;;3.03;;
34960;SDS011;30789;52.030;7.110;2023-03-23T01:20:02;6.47;;;3.15;;
34960;SDS011;30789;52.030;7.110;2023-03-23T01:22:32;4.15;;;3.10;;
34960;SDS011;30789;52.030;7.110;2023-03-23T01:24:58;6.32;;;3.05;;
34960;SDS011;30789;52.030;7.110;2023-03-23T01:27:24;4.40;;;3.08;;
34960;SDS011;30789;52.030;7.110;2023-03-23T01:29:51;4.90;;;2.90;;
34960;SDS011;30789;52.030;7.110;2023-03-23T01:32:17;5.65;;;3.28;;
34960;SDS011;30789;52.030;7.110;2023-03-23T01:34:45;6.60;;;3.30;;
34960;SDS011;30789;52.030;7.110;2023-03-23T01:37:11;4.10;;;2.90;;
34960;SDS011;30789;52.030;7.110;2023-03-23T01:39:37;4.05;;;3.00;;
34960;SDS011;30789;52.030;7.110;2023-03-23T01:42:04;3.63;;;3.00;;
34960;SDS011;30789;52.030;7.110;2023-03-23T01:47:15;5.75;;;3.22;;
34960;SDS011;30789;52.030;7.110;2023-03-23T01:49:42;4.25;;;3.20;;
34960;SDS011;30789;52.030;7.110;2023-03-23T01:52:12;5.22;;;3.25;;
34960;SDS011;30789;52.030;7.110;2023-03-23T01:54:42;3.80;;;3.05;;
34960;SDS011;30789;52.030;7.110;2023-03-23T01:57:10;4.28;;;2.67;;
34960;SDS011;30789;52.030;7.110;2023-03-23T01:59:38;4.65;;;3.00;;
34960;SDS011;30789;52.030;7.110;2023-03-23T02:02:05;4.93;;;3.10;;
34960;SDS011;30789;52.030;7.110;2023-03-23T02:04:31;4.00;;;2.90;;
34960;SDS011;30789;52.030;7.110;2023-03-23T02:06:59;4.47;;;2.95;;
34960;SDS011;30789;52.030;7.110;2023-03-23T02:09:28;3.55;;;2.70;;
34960;SDS011;30789;52.030;7.110;2023-03-23T02:11:54;3.22;;;2.83;;
34960;SDS011;30789;52.030;7.110;2023-03-23T02:14:21;3.63;;;2.92;;
34960;SDS011;30789;52.030;7.110;2023-03-23T02:16:48;4.20;;;3.15;;
34960;SDS011;30789;52.030;7.110;2023-03-23T02:19:30;6.90;;;3.28;;
34960;SDS011;30789;52.030;7.110;2023-03-23T02:25:03;6.35;;;3.05;;
34960;SDS011;30789;52.030;7.110;2023-03-23T02:27:59;2.95;;;2.50;;
34960;SDS011;30789;52.030;7.110;2023-03-23T02:30:43;3.58;;;2.90;;
34960;SDS011;30789;52.030;7.110;2023-03-23T02:36:00;5.80;;;2.80;;
34960;SDS011;30789;52.030;7.110;2023-03-23T02:38:28;5.95;;;3.72;;
34960;SDS011;30789;52.030;7.110;2023-03-23T02:40:56;4.70;;;3.30;;
34960;SDS011;30789;52.030;7.110;2023-03-23T02:43:25;6.82;;;3.17;;
34960;SDS011;30789;52.030;7.110;2023-03-23T02:45:53;7.32;;;3.30;;
34960;SDS011;30789;52.030;7.110;2023-03-23T02:48:20;5.15;;;3.42;;
34960;SDS011;30789;52.030;7.110;2023-03-23T02:50:49;5.88;;;3.55;;
34960;SDS011;30789;52.030;7.110;2023-03-23T02:53:18;5.90;;;4.05;;
34960;SDS011;30789;52.030;7.110;2023-03-23T02:55:46;6.03;;;3.75;;
34960;SDS011;30789;52.030;7.110;2023-03-23T02:58:13;5.88;;;3.63;;
34960;SDS011;30789;52.030;7.110;2023-03-23T03:00:40;4.80;;;3.13;;
34960;SDS011;30789;52.030;7.110;2023-03-23T03:03:07;8.15;;;3.55;;
34960;SDS011;30789;52.030;7.110;2023-03-23T03:05:36;7.10;;;3.92;;
34960;SDS011;30789;52.030;7.110;2023-03-23T03:08:10;6.28;;;3.67;;
34960;SDS011;30789;52.030;7.110;2023-03-23T03:10:42;5.72;;;3.63;;
34960;SDS011;30789;52.030;7.110;2023-03-23T03:13:11;6.75;;;4.20;;
34960;SDS011;30789;52.030;7.110;2023-03-23T03:15:41;6.28;;;3.40;;
34960;SDS011;30789;52.030;7.110;2023-03-23T03:18:10;5.13;;;3.55;;
34960;SDS011;30789;52.030;7.110;2023-03-23T03:20:40;4.63;;;3.47;;
34960;SDS011;30789;52.030;7.110;2023-03-23T03:23:09;9.32;;;3.65;;
34960;SDS011;30789;52.030;7.110;2023-03-23T03:25:37;6.50;;;3.53;;
34960;SDS011;30789;52.030;7.110;2023-03-23T03:28:07;8.38;;;3.88;;
34960;SDS011;30789;52.030;7.110;2023-03-23T03:30:33;4.53;;;3.25;;
34960;SDS011;30789;52.030;7.110;2023-03-23T03:33:02;4.75;;;3.70;;
34960;SDS011;30789;52.030;7.110;2023-03-23T03:35:29;7.95;;;3.35;;
34960;SDS011;30789;52.030;7.110;2023-03-23T03:37:56;5.18;;;3.22;;
34960;SDS011;30789;52.030;7.110;2023-03-23T03:40:25;4.63;;;3.13;;
34960;SDS011;30789;52.030;7.110;2023-03-23T03:42:51;7.22;;;4.00;;
34960;SDS011;30789;52.030;7.110;2023-03-23T03:45:19;6.00;;;3.72;;
34960;SDS011;30789;52.030;7.110;2023-03-23T03:47:46;5.45;;;3.92;;
34960;SDS011;30789;52.030;7.110;2023-03-23T03:50:12;9.80;;;3.80;;
34960;SDS011;30789;52.030;7.110;2023-03-23T03:52:38;4.93;;;4.07;;
34960;SDS011;30789;52.030;7.110;2023-03-23T03:55:05;4.63;;;3.92;;
34960;SDS011;30789;52.030;7.110;2023-03-23T03:57:32;5.38;;;3.47;;
34960;SDS011;30789;52.030;7.110;2023-03-23T03:59:58;5.25;;;3.80;;
34960;SDS011;30789;52.030;7.110;2023-03-23T04:02:26;4.60;;;3.45;;
34960;SDS011;30789;52.030;7.110;2023-03-23T04:04:53;5.47;;;3.45;;
34960;SDS011;30789;52.030;7.110;2023-03-23T04:07:19;6.63;;;3.25;;
34960;SDS011;30789;52.030;7.110;2023-03-23T04:09:46;5.38;;;3.45;;
34960;SDS011;30789;52.030;7.110;2023-03-23T04:12:12;4.47;;;3.35;;
34960;SDS011;30789;52.030;7.110;2023-03-23T04:14:39;6.32;;;3.70;;
34960;SDS011;30789;52.030;7.110;2023-03-23T04:17:05;6.57;;;3.47;;
34960;SDS011;30789;52.030;7.110;2023-03-23T04:19:33;5.07;;;3.75;;
34960;SDS011;30789;52.030;7.110;2023-03-23T04:21:59;4.40;;;3.13;;
34960;SDS011;30789;52.030;7.110;2023-03-23T04:24:26;3.90;;;3.05;;
34960;SDS011;30789;52.030;7.110;2023-03-23T04:26:57;4.32;;;3.10;;
34960;SDS011;30789;52.030;7.110;2023-03-23T04:29:23;4.25;;;3.17;;
34960;SDS011;30789;52.030;7.110;2023-03-23T04:31:50;6.82;;;3.35;;
34960;SDS011;30789;52.030;7.110;2023-03-23T04:34:17;5.85;;;3.33;;
34960;SDS011;30789;52.030;7.110;2023-03-23T04:36:45;4.22;;;3.20;;
34960;SDS011;30789;52.030;7.110;2023-03-23T04:39:12;4.50;;;3.03;;
34960;SDS011;30789;52.030;7.110;2023-03-23T04:41:38;3.75;;;2.70;;
34960;SDS011;30789;52.030;7.110;2023-03-23T04:44:05;3.97;;;2.70;;
34960;SDS011;30789;52.030;7.110;2023-03-23T04:46:32;4.63;;;3.10;;
34960;SDS011;30789;52.030;7.110;2023-03-23T04:48:58;4.03;;;3.13;;
34960;SDS011;30789;52.030;7.110;2023-03-23T04:51:25;6.70;;;3.38;;
34960;SDS011;30789;52.030;7.110;2023-03-23T04:53:53;4.85;;;2.88;;
34960;SDS011;30789;52.030;7.110;2023-03-23T04:56:19;4.00;;;3.15;;
34960;SDS011;30789;52.030;7.110;2023-03-23T04:58:46;3.22;;;2.80;;
34960;SDS011;30789;52.030;7.110;2023-03-23T05:01:12;4.70;;;2.90;;
34960;SDS011;30789;52.030;7.110;2023-03-23T05:03:39;4.85;;;2.90;;
34960;SDS011;30789;52.030;7.110;2023-03-23T05:06:06;5.38;;;3.28;;
34960;SDS011;30789;52.030;7.110;2023-03-23T05:08:32;4.25;;;2.80;;
34960;SDS011;30789;52.030;7.110;2023-03-23T05:11:00;5.95;;;3.17;;
34960;SDS011;30789;52.030;7.110;2023-03-23T05:13:27;3.15;;;2.72;;
34960;SDS011;30789;52.030;7.110;2023-03-23T05:15:53;4.22;;;3.13;;
34960;SDS011;30789;52.030;7.110;2023-03-23T05:18:20;3.55;;;2.50;;
34960;SDS011;30789;52.030;7.110;2023-03-23T05:20:46;3.53;;;2.65;;
34960;SDS011;30789;52.030;7.110;2023-03-23T05:23:13;3.75;;;2.65;;
34960;SDS011;30789;52.030;7.110;2023-03-23T05:25:40;4.22;;;3.08;;
34960;SDS011;30789;52.030;7.110;2023-03-23T05:28:08;3.85;;;2.45;;
34960;SDS011;30789;52.030;7.110;2023-03-23T05:30:36;3.00;;;2.67;;
34960;SDS011;30789;52.030;7.110;2023-03-23T05:33:03;3.85;;;2.80;;
34960;SDS011;30789;52.030;7.110;2023-03-23T05:35:30;4.22;;;2.15;;
34960;SDS011;30789;52.030;7.110;2023-03-23T05:37:56;5.75;;;2.95;;
34960;SDS011;30789;52.030;7.110;2023-03-23T05:40:23;5.55;;;2.45;;
34960;SDS011;30789;52.030;7.110;2023-03-23T05:42:50;6.10;;;2.63;;
34960;SDS011;30789;52.030;7.110;2023-03-23T05:45:18;4.90;;;2.67;;
34960;SDS011;30789;52.030;7.110;2023-03-23T05:47:46;3.33;;;2.50;;
34960;SDS011;30789;52.030;7.110;2023-03-23T05:50:13;4.78;;;2.92;;
34960;SDS011;30789;52.030;7.110;2023-03-23T05:52:39;3.72;;;2.38;;
34960;SDS011;30789;52.030;7.110;2023-03-23T05:55:06;3.53;;;2.10;;
34960;SDS011;30789;52.030;7.110;2023-03-23T05:57:33;5.18;;;2.50;;
34960;SDS011;30789;52.030;7.110;2023-03-23T05:59:59;4.32;;;2.47;;
34960;SDS011;30789;52.030;7.110;2023-03-23T06:02:31;3.65;;;2.25;;
34960;SDS011;30789;52.030;7.110;2023-03-23T06:04:59;3.10;;;2.40;;
34960;SDS011;30789;52.030;7.110;2023-03-23T06:07:25;3.42;;;2.30;;
34960;SDS011;30789;52.030;7.110;2023-03-23T06:09:52;4.15;;;2.33;;
34960;SDS011;30789;52.030;7.110;2023-03-23T06:12:18;3.53;;;2.35;;
34960;SDS011;30789;52.030;7.110;2023-03-23T06:14:45;4.40;;;2.53;;
34960;SDS011;30789;52.030;7.110;2023-03-23T06:17:13;4.50;;;2.28;;
34960;SDS011;30789;52.030;7.110;2023-03-23T06:19:41;5.57;;;2.63;;
34960;SDS011;30789;52.030;7.110;2023-03-23T06:22:07;3.58;;;2.53;;
34960;SDS011;30789;52.030;7.110;2023-03-23T06:24:34;4.75;;;2.92;;
34960;SDS011;30789;52.030;7.110;2023-03-23T06:27:00;5.95;;;2.70;;
34960;SDS011;30789;52.030;7.110;2023-03-23T06:29:27;3.20;;;2.15;;
34960;SDS011;30789;52.030;7.110;2023-03-23T06:31:54;4.18;;;2.28;;
34960;SDS011;30789;52.030;7.110;2023-03-23T06:34:21;3.00;;;2.42;;
34960;SDS011;30789;52.030;7.110;2023-03-23T06:36:49;7.03;;;2.88;;
34960;SDS011;30789;52.030;7.110;2023-03-23T06:39:15;4.85;;;2.30;;
34960;SDS011;30789;52.030;7.110;2023-03-23T06:41:42;5.05;;;2.28;;
34960;SDS011;30789;52.030;7.110;2023-03-23T06:44:08;4.80;;;2.25;;
34960;SDS011;30789;52.030;7.110;2023-03-23T06:46:38;4.13;;;2.47;;
34960;SDS011;30789;52.030;7.110;2023-03-23T06:49:04;4.53;;;2.15;;
34960;SDS011;30789;52.030;7.110;2023-03-23T06:51:31;4.53;;;2.00;;
34960;SDS011;30789;52.030;7.110;2023-03-23T06:53:58;5.90;;;2.65;;
34960;SDS011;30789;52.030;7.110;2023-03-23T06:56:25;3.72;;;2.20;;
34960;SDS011;30789;52.030;7.110;2023-03-23T06:58:51;3.22;;;2.53;;
34960;SDS011;30789;52.030;7.110;2023-03-23T07:01:18;7.05;;;2.00;;
34960;SDS011;30789;52.030;7.110;2023-03-23T07:03:44;6.82;;;2.13;;
34960;SDS011;30789;52.030;7.110;2023-03-23T07:06:11;3.70;;;2.25;;
34960;SDS011;30789;52.030;7.110;2023-03-23T07:08:37;5.13;;;2.08;;
34960;SDS011;30789;52.030;7.110;2023-03-23T07:11:05;4.25;;;2.15;;
34960;SDS011;30789;52.030;7.110;2023-03-23T07:13:32;4.90;;;2.25;;
34960;SDS011;30789;52.030;7.110;2023-03-23T07:15:58;9.63;;;2.72;;
34960;SDS011;30789;52.030;7.110;2023-03-23T07:18:24;2.78;;;1.83;;
34960;SDS011;30789;52.030;7.110;2023-03-23T07:20:52;5.43;;;2.22;;
34960;SDS011;30789;52.030;7.110;2023-03-23T07:23:18;4.68;;;2.60;;
34960;SDS011;30789;52.030;7.110;2023-03-23T07:25:45;3.00;;;2.05;;
34960;SDS011;30789;52.030;7.110;2023-03-23T07:28:14;3.33;;;2.55;;
34960;SDS011;30789;52.030;7.110;2023-03-23T07:30:41;5.35;;;2.05;;
34960;SDS011;30789;52.030;7.110;2023-03-23T07:33:08;6.53;;;2.30;;
34960;SDS011;30789;52.030;7.110;2023-03-23T07:35:35;4.55;;;2.08;;
34960;SDS011;30789;52.030;7.110;2023-03-23T07:38:01;4.97;;;1.92;;
34960;SDS011;30789;52.030;7.110;2023-03-23T07:40:28;5.30;;;1.90;;
34960;SDS011;30789;52.030;7.110;2023-03-23T07:42:58;2.97;;;1.92;;
34960;SDS011;30789;52.030;7.110;2023-03-23T07:45:26;2.42;;;1.75;;
34960;SDS011;30789;52.030;7.110;2023-03-23T07:47:52;8.50;;;2.10;;
34960;SDS011;30789;52.030;7.110;2023-03-23T07:50:19;5.20;;;2.13;;
34960;SDS011;30789;52.030;7.110;2023-03-23T07:52:47;4.18;;;1.85;;
34960;SDS011;30789;52.030;7.110;2023-03-23T07:55:13;6.18;;;2.10;;
34960;SDS011;30789;52.030;7.110;2023-03-23T07:57:42;4.10;;;2.05;;
34960;SDS011;30789;52.030;7.110;2023-03-23T08:00:09;5.45;;;2.33;;
34960;SDS011;30789;52.030;7.110;2023-03-23T08:02:40;4.07;;;2.25;;
34960;SDS011;30789;52.030;7.110;2023-03-23T08:05:06;3.95;;;1.70;;
34960;SDS011;30789;52.030;7.110;2023-03-23T08:07:33;3.38;;;1.85;;
34960;SDS011;30789;52.030;7.110;2023-03-23T08:09:59;6.20;;;1.88;;
34960;SDS011;30789;52.030;7.110;2023-03-23T08:12:26;6.20;;;2.20;;
34960;SDS011;30789;52.030;7.110;2023-03-23T08:14:53;5.97;;;2.10;;
34960;SDS011;30789;52.030;7.110;2023-03-23T08:17:19;4.85;;;1.70;;
34960;SDS011;30789;52.030;7.110;2023-03-23T08:19:47;6.55;;;1.88;;
34960;SDS011;30789;52.030;7.110;2023-03-23T08:22:13;4.35;;;1.83;;
34960;SDS011;30789;52.030;7.110;2023-03-23T08:24:39;3.53;;;1.83;;
34960;SDS011;30789;52.030;7.110;2023-03-23T08:27:06;4.13;;;1.48;;
34960;SDS011;30789;52.030;7.110;2023-03-23T08:29:32;5.50;;;1.27;;
34960;SDS011;30789;52.030;7.110;2023-03-23T08:31:58;6.13;;;1.60;;
34960;SDS011;30789;52.030;7.110;2023-03-23T08:34:27;4.30;;;1.88;;
34960;SDS011;30789;52.030;7.110;2023-03-23T08:36:55;6.20;;;1.80;;
34960;SDS011;30789;52.030;7.110;2023-03-23T08:39:21;8.80;;;2.13;;
34960;SDS011;30789;52.030;7.110;2023-03-23T08:41:50;7.35;;;1.83;;
34960;SDS011;30789;52.030;7.110;2023-03-23T08:44:16;4.20;;;1.40;;
34960;SDS011;30789;52.030;7.110;2023-03-23T08:46:42;3.20;;;1.83;;
34960;SDS011;30789;52.030;7.110;2023-03-23T08:49:09;6.53;;;1.90;;
34960;SDS011;30789;52.030;7.110;2023-03-23T08:51:35;6.25;;;1.80;;
34960;SDS011;30789;52.030;7.110;2023-03-23T08:54:03;6.88;;;1.75;;
34960;SDS011;30789;52.030;7.110;2023-03-23T08:56:30;4.72;;;1.60;;
34960;SDS011;30789;52.030;7.110;2023-03-23T08:58:57;3.88;;;1.23;;
34960;SDS011;30789;52.030;7.110;2023-03-23T09:01:23;5.25;;;1.73;;
34960;SDS011;30789;52.030;7.110;2023-03-23T09:03:51;2.47;;;1.52;;
34960;SDS011;30789;52.030;7.110;2023-03-23T09:06:19;5.75;;;2.08;;
34960;SDS011;30789;52.030;7.110;2023-03-23T09:08:45;3.75;;;1.42;;
34960;SDS011;30789;52.030;7.110;2023-03-23T09:11:13;8.13;;;1.60;;
34960;SDS011;30789;52.030;7.110;2023-03-23T09:13:39;4.80;;;1.63;;
34960;SDS011;30789;52.030;7.110;2023-03-23T09:16:06;3.08;;;1.25;;
34960;SDS011;30789;52.030;7.110;2023-03-23T09:18:33;2.22;;;1.02;;
34960;SDS011;30789;52.030;7.110;2023-03-23T09:21:00;3.63;;;0.70;;
34960;SDS011;30789;52.030;7.110;2023-03-23T09:23:26;4.28;;;1.00;;
34960;SDS011;30789;52.030;7.110;2023-03-23T09:25:53;1.52;;;0.50;;
34960;SDS011;30789;52.030;7.110;2023-03-23T09:28:21;1.98;;;0.60;;
34960;SDS011;30789;52.030;7.110;2023-03-23T09:30:47;1.50;;;0.60;;
34960;SDS011;30789;52.030;7.110;2023-03-23T09:33:14;0.70;;;0.45;;
34960;SDS011;30789;52.030;7.110;2023-03-23T09:35:40;1.42;;;0.52;;
34960;SDS011;30789;52.030;7.110;2023-03-23T09:38:08;1.05;;;0.50;;
34960;SDS011;30789;52.030;7.110;2023-03-23T09:40:37;0.50;;;0.30;;
34960;SDS011;30789;52.030;7.110;2023-03-23T09:45:51;1.27;;;0.40;;
34960;SDS011;30789;52.030;7.110;2023-03-23T09:48:32;1.95;;;0.60;;
34960;SDS011;30789;52.030;7.110;2023-03-23T09:51:00;1.10;;;0.50;;
34960;SDS011;30789;52.030;7.110;2023-03-23T09:53:30;1.40;;;0.57;;
34960;SDS011;30789;52.030;7.110;2023-03-23T09:56:00;1.10;;;0.50;;
34960;SDS011;30789;52.030;7.110;2023-03-23T09:58:27;0.80;;;0.50;;
34960;SDS011;30789;52.030;7.110;2023-03-23T10:00:58;1.30;;;0.52;;
34960;SDS011;30789;52.030;7.110;2023-03-23T10:03:26;1.42;;;0.70;;
34960;SDS011;30789;52.030;7.110;2023-03-23T10:05:53;2.25;;;0.60;;
34960;SDS011;30789;52.030;7.110;2023-03-23T10:08:21;4.40;;;0.60;;
34960;SDS011;30789;52.030;7.110;2023-03-23T10:10:51;1.23;;;0.55;;
34960;SDS011;30789;52.030;7.110;2023-03-23T10:13:22;6.10;;;0.60;;
34960;SDS011;30789;52.030;7.110;2023-03-23T10:15:50;1.75;;;0.57;;
34960;SDS011;30789;52.030;7.110;2023-03-23T10:18:20;3.25;;;0.68;;
34960;SDS011;30789;52.030;7.110;2023-03-23T10:20:48;0.55;;;0.50;;
34960;SDS011;30789;52.030;7.110;2023-03-23T10:23:24;2.25;;;0.63;;
34960;SDS011;30789;52.030;7.110;2023-03-23T10:26:01;1.85;;;0.50;;
34960;SDS011;30789;52.030;7.110;2023-03-23T10:28:35;0.60;;;0.50;;
34960;SDS011;30789;52.030;7.110;2023-03-23T10:31:01;2.65;;;0.70;;
34960;SDS011;30789;52.030;7.110;2023-03-23T10:33:30;1.10;;;0.60;;
34960;SDS011;30789;52.030;7.110;2023-03-23T10:36:00;3.25;;;0.93;;
34960;SDS011;30789;52.030;7.110;2023-03-23T10:38:29;2.15;;;1.08;;
34960;SDS011;30789;52.030;7.110;2023-03-23T10:40:58;0.80;;;0.60;;
34960;SDS011;30789;52.030;7.110;2023-03-23T10:43:26;1.80;;;0.50;;
34960;SDS011;30789;52.030;7.110;2023-03-23T10:45:54;0.93;;;0.60;;
34960;SDS011;30789;52.030;7.110;2023-03-23T10:48:25;1.58;;;0.82;;
34960;SDS011;30789;52.030;7.110;2023-03-23T10:50:54;1.73;;;0.70;;
34960;SDS011;30789;52.030;7.110;2023-03-23T10:53:21;0.95;;;0.47;;
34960;SDS011;30789;52.030;7.110;2023-03-23T10:55:49;1.95;;;0.47;;
34960;SDS011;30789;52.030;7.110;2023-03-23T10:58:22;2.22;;;0.63;;
34960;SDS011;30789;52.030;7.110;2023-03-23T11:00:49;2.40;;;1.02;;
34960;SDS011;30789;52.030;7.110;2023-03-23T11:03:23;1.95;;;0.70;;
34960;SDS011;30789;52.030;7.110;2023-03-23T11:05:52;2.20;;;0.90;;
34960;SDS011;30789;52.030;7.110;2023-03-23T11:08:20;3.03;;;0.60;;
34960;SDS011;30789;52.030;7.110;2023-03-23T11:10:48;2.25;;;0.73;;
34960;SDS011;30789;52.030;7.110;2023-03-23T11:13:15;3.60;;;0.90;;
34960;SDS011;30789;52.030;7.110;2023-03-23T11:15:42;7.75;;;0.90;;
34960;SDS011;30789;52.030;7.110;2023-03-23T11:18:10;3.63;;;0.65;;
34960;SDS011;30789;52.030;7.110;2023-03-23T11:20:39;2.50;;;0.88;;
34960;SDS011;30789;52.030;7.110;2023-03-23T11:23:11;4.60;;;0.88;;
34960;SDS011;30789;52.030;7.110;2023-03-23T11:25:53;2.05;;;0.75;;
34960;SDS011;30789;52.030;7.110;2023-03-23T11:28:20;1.40;;;0.50;;
34960;SDS011;30789;52.030;7.110;2023-03-23T11:30:46;2.72;;;0.80;;
34960;SDS011;30789;52.030;7.110;2023-03-23T11:33:13;1.70;;;0.50;;
34960;SDS011;30789;52.030;7.110;2023-03-23T11:35:42;2.63;;;0.68;;
34960;SDS011;30789;52.030;7.110;2023-03-23T11:38:12;1.15;;;0.40;;
34960;SDS011;30789;52.030;7.110;2023-03-23T11:40:43;1.45;;;0.60;;
34960;SDS011;30789;52.030;7.110;2023-03-23T11:43:14;1.40;;;0.50;;
34960;SDS011;30789;52.030;7.110;2023-03-23T11:45:46;2.45;;;0.70;;
34960;SDS011;30789;52.030;7.110;2023-03-23T11:48:15;1.05;;;0.40;;
34960;SDS011;30789;52.030;7.110;2023-03-23T11:50:47;1.48;;;0.52;;
34960;SDS011;30789;52.030;7.110;2023-03-23T11:53:17;0.85;;;0.30;;
34960;SDS011;30789;52.030;7.110;2023-03-23T11:55:57;1.00;;;0.50;;
34960;SDS011;30789;52.030;7.110;2023-03-23T11:58:27;5.00;;;0.63;;
34960;SDS011;30789;52.030;7.110;2023-03-23T12:00:58;6.07;;;0.80;;
34960;SDS011;30789;52.030;7.110;2023-03-23T12:03:24;2.30;;;0.70;;
34960;SDS011;30789;52.030;7.110;2023-03-23T12:05:56;2.15;;;0.60;;
34960;SDS011;30789;52.030;7.110;2023-03-23T12:08:32;1.48;;;0.55;;
34960;SDS011;30789;52.030;7.110;2023-03-23T12:11:05;1.75;;;0.65;;
34960;SDS011;30789;52.030;7.110;2023-03-23T12:13:40;2.08;;;0.80;;
34960;SDS011;30789;52.030;7.110;2023-03-23T12:16:17;4.57;;;0.75;;
34960;SDS011;30789;52.030;7.110;2023-03-23T12:18:47;4.13;;;0.77;;
34960;SDS011;30789;52.030;7.110;2023-03-23T12:21:15;1.73;;;0.40;;
34960;SDS011;30789;52.030;7.110;2023-03-23T12:23:45;3.05;;;0.65;;
34960;SDS011;30789;52.030;7.110;2023-03-23T12:26:23;1.65;;;0.70;;
34960;SDS011;30789;52.030;7.110;2023-03-23T12:31:39;1.70;;;0.75;;
34960;SDS011;30789;52.030;7.110;2023-03-23T12:34:10;1.70;;;0.70;;
34960;SDS011;30789;52.030;7.110;2023-03-23T12:36:44;2.90;;;0.85;;
34960;SDS011;30789;52.030;7.110;2023-03-23T12:39:25;4.65;;;1.00;;
34960;SDS011;30789;52.030;7.110;2023-03-23T12:41:54;1.48;;;0.60;;
34960;SDS011;30789;52.030;7.110;2023-03-23T12:44:25;2.17;;;0.80;;
34960;SDS011;30789;52.030;7.110;2023-03-23T12:47:07;2.85;;;0.90;;
34960;SDS011;30789;52.030;7.110;2023-03-23T12:49:37;3.00;;;0.90;;
34960;SDS011;30789;52.030;7.110;2023-03-23T12:52:09;2.05;;;0.70;;
34960;SDS011;30789;52.030;7.110;2023-03-23T12:54:38;2.17;;;0.70;;
34960;SDS011;30789;52.030;7.110;2023-03-23T12:57:07;2.13;;;0.63;;
34960;SDS011;30789;52.030;7.110;2023-03-23T12:59:36;4.53;;;1.00;;
34960;SDS011;30789;52.030;7.110;2023-03-23T13:02:05;2.28;;;0.82;;
34960;SDS011;30789;52.030;7.110;2023-03-23T13:04:35;2.55;;;0.93;;
34960;SDS011;30789;52.030;7.110;2023-03-23T13:07:02;3.78;;;1.10;;
34960;SDS011;30789;52.030;7.110;2023-03-23T13:09:32;4.43;;;0.95;;
34960;SDS011;30789;52.030;7.110;2023-03-23T13:12:01;5.63;;;0.98;;
34960;SDS011;30789;52.030;7.110;2023-03-23T13:14:32;1.60;;;0.75;;
34960;SDS011;30789;52.030;7.110;2023-03-23T13:17:02;2.55;;;0.85;;
34960;SDS011;30789;52.030;7.110;2023-03-23T13:19:30;2.63;;;0.82;;
34960;SDS011;30789;52.030;7.110;2023-03-23T13:22:04;2.63;;;0.80;;
34960;SDS011;30789;52.030;7.110;2023-03-23T13:24:33;1.08;;;0.57;;
34960;SDS011;30789;52.030;7.110;2023-03-23T13:27:01;0.95;;;0.45;;
34960;SDS011;30789;52.030;7.110;2023-03-23T13:29:28;3.65;;;0.80;;
34960;SDS011;30789;52.030;7.110;2023-03-23T13:32:04;1.83;;;0.70;;
34960;SDS011;30789;52.030;7.110;2023-03-23T13:34:31;1.52;;;0.77;;
34960;SDS011;30789;52.030;7.110;2023-03-23T13:36:58;4.93;;;1.00;;
34960;SDS011;30789;52.030;7.110;2023-03-23T13:39:27;2.22;;;0.80;;
34960;SDS011;30789;52.030;7.110;2023-03-23T13:41:59;2.20;;;0.98;;
34960;SDS011;30789;52.030;7.110;2023-03-23T13:44:26;2.60;;;0.90;;
34960;SDS011;30789;52.030;7.110;2023-03-23T13:46:55;2.95;;;1.02;;
34960;SDS011;30789;52.030;7.110;2023-03-23T13:49:23;2.65;;;1.02;;
34960;SDS011;30789;52.030;7.110;2023-03-23T13:51:57;2.80;;;0.75;;
34960;SDS011;30789;52.030;7.110;2023-03-23T13:54:32;3.15;;;0.93;;
34960;SDS011;30789;52.030;7.110;2023-03-23T13:57:18;3.45;;;1.05;;
34960;SDS011;30789;52.030;7.110;2023-03-23T13:59:46;1.83;;;0.90;;
34960;SDS011;30789;52.030;7.110;2023-03-23T14:02:32;1.33;;;0.80;;
34960;SDS011;30789;52.030;7.110;2023-03-23T14:05:08;2.17;;;0.75;;
34960;SDS011;30789;52.030;7.110;2023-03-23T14:07:49;2.50;;;0.80;;
34960;SDS011;30789;52.030;7.110;2023-03-23T14:10:17;3.57;;;0.77;;
34960;SDS011;30789;52.030;7.110;2023-03-23T14:12:44;2.47;;;1.00;;
34960;SDS011;30789;52.030;7.110;2023-03-23T14:15:11;2.92;;;0.88;;
34960;SDS011;30789;52.030;7.110;2023-03-23T14:17:42;2.05;;;0.90;;
34960;SDS011;30789;52.030;7.110;2023-03-23T14:20:09;3.88;;;0.93;;
34960;SDS011;30789;52.030;7.110;2023-03-23T14:22:42;2.53;;;0.77;;
34960;SDS011;30789;52.030;7.110;2023-03-23T14:25:10;3.30;;;1.42;;
34960;SDS011;30789;52.030;7.110;2023-03-23T14:27:39;3.20;;;1.33;;
34960;SDS011;30789;52.030;7.110;2023-03-23T14:30:07;2.33;;;1.35;;
34960;SDS011;30789;52.030;7.110;2023-03-23T14:32:34;2.22;;;1.35;;
34960;SDS011;30789;52.030;7.110;2023-03-23T14:35:04;2.47;;;1.58;;
34960;SDS011;30789;52.030;7.110;2023-03-23T14:37:31;5.93;;;2.27;;
34960;SDS011;30789;52.030;7.110;2023-03-23T14:39:58;4.20;;;1.85;;
34960;SDS011;30789;52.030;7.110;2023-03-23T14:42:26;4.22;;;1.60;;
34960;SDS011;30789;52.030;7.110;2023-03-23T14:44:54;3.65;;;1.27;;
34960;SDS011;30789;52.030;7.110;2023-03-23T14:47:21;6.93;;;1.65;;
34960;SDS011;30789;52.030;7.110;2023-03-23T14:49:52;3.92;;;1.40;;
34960;SDS011;30789;52.030;7.110;2023-03-23T14:52:18;3.03;;;1.20;;
34960;SDS011;30789;52.030;7.110;2023-03-23T14:54:47;2.72;;;1.42;;
34960;SDS011;30789;52.030;7.110;2023-03-23T14:57:14;4.05;;;1.63;;
34960;SDS011;30789;52.030;7.110;2023-03-23T14:59:41;5.00;;;1.67;;
34960;SDS011;30789;52.030;7.110;2023-03-23T15:02:11;2.88;;;1.63;;
34960;SDS011;30789;52.030;7.110;2023-03-23T15:04:38;4.70;;;1.63;;
34960;SDS011;30789;52.030;7.110;2023-03-23T15:07:05;3.50;;;1.70;;
34960;SDS011;30789;52.030;7.110;2023-03-23T15:09:32;5.28;;;2.13;;